OICC  Shahid Ashrafi Esfahani  Airport

Kermanshah, Iran

Add Bookmark
ICAO OICC
IATA KSH
Type Airport
Status Operational
Latitude
34° 20' 45" N
34.345901
Longitude
47° 9' 29" E
47.158100
Local (GMT +3.5 ) UTC
Sep 30, 2016 11:42 pm Sep 30, 2016 20:12
Sunrise-Sunset Local UTC
Begin Civil Twilight 05:49 am 02:19
Sunrise 06:14 am 02:44
Sunset 06:07 pm 14:37
End Civil Twilight 06:32 pm 15:02
VFR
VFR
MVFR
MVFR
IFR
IFR
LIFR
LIFR
Unknown
Unavailable

Current Weather

METAR Observed VFR
OICC 301930Z 29006KT CAVOK 16/M08 Q1012 A2991 Fri, Sep 30, 2016 @ 19:30 UTC
(42 Minutes ago)
Visual Flight Rules
Wind Visibility Conditions
290° at 6 knots (11 kph) 10 km or more
  • No significant weather
Temperatures Readings Precipitation
Current Temp
16°C
61°F
Dewpoint
-8°C
18°F
Humidity 19%
Altimeter 29.88" Hg
Sea Level Pressure 1,012 mb
Field Elevation
1,322 m
4,337 ft
None Recorded

Additional weather within a 92.6km radius of OICC

Map ICAO Location
OIGK 8km S/SW (209°)
VFR
VFR
MVFR
MVFR
IFR
IFR
LIFR
LIFR
Unknown
Unavailable
-
-

CheckWX.com is intended as a tool to help pilots better visualize weather data. It is not intended as a substitute for an official weather briefing obtained from a Flight Service Station. CheckWX.com does not meet the FAA requirements for an official pre-flight weather briefing. Therefore, it's important that pilots still call and obtain an official FSS pre-flight weather briefing.

© 2007-2016 CheckWX.com
20:12:42 UTC